sensor_id;sensor_type;location;lat;lon;timestamp;pressure;altitude;pressure_sealevel;temperature;humidity
65546;BME280;52177;55.968;37.498;2023-06-26T00:00:12;99612.13;;;17.89;67.20
65546;BME280;52177;55.968;37.498;2023-06-26T00:00:42;99612.94;;;17.90;67.15
65546;BME280;52177;55.968;37.498;2023-06-26T00:01:12;99614.56;;;17.91;67.16
65546;BME280;52177;55.968;37.498;2023-06-26T00:01:43;99605.91;;;17.89;67.15
65546;BME280;52177;55.968;37.498;2023-06-26T00:02:14;99611.31;;;17.89;67.34
65546;BME280;52177;55.968;37.498;2023-06-26T00:02:45;99604.84;;;17.90;67.31
65546;BME280;52177;55.968;37.498;2023-06-26T00:03:15;99614.56;;;17.91;67.11
65546;BME280;52177;55.968;37.498;2023-06-26T00:03:46;99605.66;;;17.90;67.09
65546;BME280;52177;55.968;37.498;2023-06-26T00:04:16;99604.03;;;17.89;67.20
65546;BME280;52177;55.968;37.498;2023-06-26T00:04:47;99601.34;;;17.89;67.25
65546;BME280;52177;55.968;37.498;2023-06-26T00:05:17;99609.63;;;17.88;67.11
65546;BME280;52177;55.968;37.498;2023-06-26T00:05:47;99609.63;;;17.88;67.17
65546;BME280;52177;55.968;37.498;2023-06-26T00:06:18;99608.81;;;17.87;67.21
65546;BME280;52177;55.968;37.498;2023-06-26T00:06:48;99611.53;;;17.87;66.89
65546;BME280;52177;55.968;37.498;2023-06-26T00:07:18;99610.44;;;17.88;67.00
65546;BME280;52177;55.968;37.498;2023-06-26T00:07:49;99614.22;;;17.87;66.92
65546;BME280;52177;55.968;37.498;2023-06-26T00:08:19;99613.41;;;17.87;67.07
65546;BME280;52177;55.968;37.498;2023-06-26T00:08:50;99603.66;;;17.86;67.11
65546;BME280;52177;55.968;37.498;2023-06-26T00:09:21;99605.31;;;17.87;67.15
65546;BME280;52177;55.968;37.498;2023-06-26T00:09:51;99609.88;;;17.86;67.05
65546;BME280;52177;55.968;37.498;2023-06-26T00:10:22;99619.81;;;17.86;66.95
65546;BME280;52177;55.968;37.498;2023-06-26T00:10:53;99619.00;;;17.85;67.20
65546;BME280;52177;55.968;37.498;2023-06-26T00:11:23;99612.78;;;17.85;67.13
65546;BME280;52177;55.968;37.498;2023-06-26T00:11:53;99620.06;;;17.84;67.11
65546;BME280;52177;55.968;37.498;2023-06-26T00:12:24;99609.50;;;17.83;66.85
65546;BME280;52177;55.968;37.498;2023-06-26T00:12:54;99611.13;;;17.84;66.78
65546;BME280;52177;55.968;37.498;2023-06-26T00:13:24;99617.59;;;17.83;66.88
65546;BME280;52177;55.968;37.498;2023-06-26T00:13:55;99609.50;;;17.83;66.90
65546;BME280;52177;55.968;37.498;2023-06-26T00:14:26;99611.38;;;17.82;67.00
65546;BME280;52177;55.968;37.498;2023-06-26T00:14:57;99614.28;;;17.81;67.04
65546;BME280;52177;55.968;37.498;2023-06-26T00:15:27;99613.44;;;17.80;67.00
65546;BME280;52177;55.968;37.498;2023-06-26T00:16:01;99614.47;;;17.79;67.14
65546;BME280;52177;55.968;37.498;2023-06-26T00:16:33;99612.84;;;17.78;67.15
65546;BME280;52177;55.968;37.498;2023-06-26T00:17:03;99613.91;;;17.77;66.98
65546;BME280;52177;55.968;37.498;2023-06-26T00:17:34;99609.31;;;17.78;67.05
65546;BME280;52177;55.968;37.498;2023-06-26T00:18:07;99611.22;;;17.77;67.34
65546;BME280;52177;55.968;37.498;2023-06-26T00:18:37;99610.38;;;17.77;67.30
65546;BME280;52177;55.968;37.498;2023-06-26T00:19:08;99613.31;;;17.75;67.19
65546;BME280;52177;55.968;37.498;2023-06-26T00:19:38;99614.34;;;17.74;67.33
65546;BME280;52177;55.968;37.498;2023-06-26T00:20:09;99610.81;;;17.73;67.31
65546;BME280;52177;55.968;37.498;2023-06-26T00:20:39;99618.09;;;17.73;67.44
65546;BME280;52177;55.968;37.498;2023-06-26T00:21:10;99611.03;;;17.72;67.44
65546;BME280;52177;55.968;37.498;2023-06-26T00:21:40;99605.66;;;17.72;67.54
65546;BME280;52177;55.968;37.498;2023-06-26T00:22:11;99609.63;;;17.69;67.74
65546;BME280;52177;55.968;37.498;2023-06-26T00:22:41;99604.22;;;17.69;67.63
65546;BME280;52177;55.968;37.498;2023-06-26T00:23:12;99606.31;;;17.67;67.76
65546;BME280;52177;55.968;37.498;2023-06-26T00:23:43;99609.00;;;17.67;67.66
65546;BME280;52177;55.968;37.498;2023-06-26T00:24:14;99614.66;;;17.66;67.54
65546;BME280;52177;55.968;37.498;2023-06-26T00:24:44;99604.09;;;17.64;67.54
65546;BME280;52177;55.968;37.498;2023-06-26T00:25:15;99603.47;;;17.62;67.79
65546;BME280;52177;55.968;37.498;2023-06-26T00:25:45;99607.84;;;17.63;67.68
65546;BME280;52177;55.968;37.498;2023-06-26T00:26:16;99607.25;;;17.61;67.52
65546;BME280;52177;55.968;37.498;2023-06-26T00:26:47;99611.34;;;17.64;67.62
65546;BME280;52177;55.968;37.498;2023-06-26T00:27:17;99606.19;;;17.62;67.51
65546;BME280;52177;55.968;37.498;2023-06-26T00:27:48;99609.69;;;17.63;67.62
65546;BME280;52177;55.968;37.498;2023-06-26T00:28:18;99604.28;;;17.63;67.54
65546;BME280;52177;55.968;37.498;2023-06-26T00:28:49;99607.84;;;17.63;67.67
65546;BME280;52177;55.968;37.498;2023-06-26T00:29:19;99605.16;;;17.63;67.76
65546;BME280;52177;55.968;37.498;2023-06-26T00:29:49;99604.09;;;17.64;67.75
65546;BME280;52177;55.968;37.498;2023-06-26T00:30:20;99607.00;;;17.63;67.79
65546;BME280;52177;55.968;37.498;2023-06-26T00:30:51;99607.84;;;17.63;67.65
65546;BME280;52177;55.968;37.498;2023-06-26T00:31:21;99612.38;;;17.63;67.69
65546;BME280;52177;55.968;37.498;2023-06-26T00:31:51;99604.28;;;17.63;67.58
65546;BME280;52177;55.968;37.498;2023-06-26T00:32:21;99607.00;;;17.63;67.56
65546;BME280;52177;55.968;37.498;2023-06-26T00:32:52;99612.38;;;17.63;67.74
65546;BME280;52177;55.968;37.498;2023-06-26T00:33:22;99611.56;;;17.62;67.47
65546;BME280;52177;55.968;37.498;2023-06-26T00:33:53;99610.75;;;17.62;67.51
65546;BME280;52177;55.968;37.498;2023-06-26T00:34:23;99608.06;;;17.62;67.74
65546;BME280;52177;55.968;37.498;2023-06-26T00:34:53;99614.25;;;17.62;67.69
65546;BME280;52177;55.968;37.498;2023-06-26T00:35:23;99609.94;;;17.61;67.56
65546;BME280;52177;55.968;37.498;2023-06-26T00:35:54;99613.66;;;17.60;67.49
65546;BME280;52177;55.968;37.498;2023-06-26T00:36:24;99612.84;;;17.60;67.56
65546;BME280;52177;55.968;37.498;2023-06-26T00:36:56;99612.03;;;17.59;67.46
65546;BME280;52177;55.968;37.498;2023-06-26T00:37:26;99606.63;;;17.59;67.17
65546;BME280;52177;55.968;37.498;2023-06-26T00:37:57;99612.84;;;17.60;67.28
65546;BME280;52177;55.968;37.498;2023-06-26T00:38:27;99609.31;;;17.59;67.40
65546;BME280;52177;55.968;37.498;2023-06-26T00:38:59;99602.06;;;17.60;67.00
65546;BME280;52177;55.968;37.498;2023-06-26T00:39:29;99604.75;;;17.60;66.91
65546;BME280;52177;55.968;37.498;2023-06-26T00:39:59;99604.75;;;17.60;66.49
65546;BME280;52177;55.968;37.498;2023-06-26T00:40:30;99602.88;;;17.60;66.74
65546;BME280;52177;55.968;37.498;2023-06-26T00:41:00;99599.97;;;17.62;66.64
65546;BME280;52177;55.968;37.498;2023-06-26T00:41:30;99605.16;;;17.63;66.46
65546;BME280;52177;55.968;37.498;2023-06-26T00:42:01;99593.31;;;17.64;66.13
65546;BME280;52177;55.968;37.498;2023-06-26T00:42:31;99599.50;;;17.65;66.03
65546;BME280;52177;55.968;37.498;2023-06-26T00:43:02;99598.22;;;17.67;65.89
65546;BME280;52177;55.968;37.498;2023-06-26T00:43:32;99601.53;;;17.69;66.10
65546;BME280;52177;55.968;37.498;2023-06-26T00:44:06;99598.84;;;17.69;66.08
65546;BME280;52177;55.968;37.498;2023-06-26T00:44:36;99596.97;;;17.70;66.00
65546;BME280;52177;55.968;37.498;2023-06-26T00:45:07;99599.44;;;17.71;65.85
65546;BME280;52177;55.968;37.498;2023-06-26T00:45:37;99603.78;;;17.72;66.11
65546;BME280;52177;55.968;37.498;2023-06-26T00:46:10;99598.41;;;17.72;66.26
65546;BME280;52177;55.968;37.498;2023-06-26T00:46:41;99596.75;;;17.71;66.15
65546;BME280;52177;55.968;37.498;2023-06-26T00:47:14;99608.34;;;17.72;66.09
65546;BME280;52177;55.968;37.498;2023-06-26T00:47:46;99598.63;;;17.71;65.97
65546;BME280;52177;55.968;37.498;2023-06-26T00:48:16;99593.22;;;17.71;66.09
65546;BME280;52177;55.968;37.498;2023-06-26T00:48:48;99604.00;;;17.71;66.33
65546;BME280;52177;55.968;37.498;2023-06-26T00:49:18;99603.19;;;17.70;66.23
65546;BME280;52177;55.968;37.498;2023-06-26T00:49:49;99599.69;;;17.70;66.25
65546;BME280;52177;55.968;37.498;2023-06-26T00:50:20;99608.59;;;17.70;66.38
65546;BME280;52177;55.968;37.498;2023-06-26T00:50:50;99604.00;;;17.71;66.31
65546;BME280;52177;55.968;37.498;2023-06-26T00:51:20;99604.81;;;17.71;66.46
65546;BME280;52177;55.968;37.498;2023-06-26T00:51:51;99601.53;;;17.69;66.38
65546;BME280;52177;55.968;37.498;2023-06-26T00:52:22;99607.78;;;17.70;66.39
65546;BME280;52177;55.968;37.498;2023-06-26T00:52:54;99596.97;;;17.70;66.49
65546;BME280;52177;55.968;37.498;2023-06-26T00:53:31;99605.28;;;17.68;66.51
65546;BME280;52177;55.968;37.498;2023-06-26T00:54:02;99603.63;;;17.67;66.43
65546;BME280;52177;55.968;37.498;2023-06-26T00:54:33;99607.38;;;17.66;66.44
65546;BME280;52177;55.968;37.498;2023-06-26T00:55:03;99611.13;;;17.65;66.59
65546;BME280;52177;55.968;37.498;2023-06-26T00:55:34;99605.75;;;17.65;66.48
65546;BME280;52177;55.968;37.498;2023-06-26T00:56:05;99603.25;;;17.64;66.50
65546;BME280;52177;55.968;37.498;2023-06-26T00:56:36;99606.19;;;17.62;66.62
65546;BME280;52177;55.968;37.498;2023-06-26T00:57:07;99611.56;;;17.62;66.83
65546;BME280;52177;55.968;37.498;2023-06-26T00:57:37;99603.72;;;17.61;67.07
65546;BME280;52177;55.968;37.498;2023-06-26T00:58:08;99601.84;;;17.61;66.73
65546;BME280;52177;55.968;37.498;2023-06-26T00:58:38;99600.19;;;17.60;66.69
65546;BME280;52177;55.968;37.498;2023-06-26T00:59:08;99602.06;;;17.60;66.73
65546;BME280;52177;55.968;37.498;2023-06-26T00:59:39;99600.19;;;17.60;66.84
65546;BME280;52177;55.968;37.498;2023-06-26T01:00:10;99601.25;;;17.59;67.12
65546;BME280;52177;55.968;37.498;2023-06-26T01:00:40;99593.97;;;17.60;67.05
65546;BME280;52177;55.968;37.498;2023-06-26T01:01:11;99595.84;;;17.59;66.76
65546;BME280;52177;55.968;37.498;2023-06-26T01:01:46;99592.94;;;17.61;66.53
65546;BME280;52177;55.968;37.498;2023-06-26T01:02:16;99599.38;;;17.60;66.45
65546;BME280;52177;55.968;37.498;2023-06-26T01:02:50;99597.28;;;17.62;66.62
65546;BME280;52177;55.968;37.498;2023-06-26T01:03:22;99590.00;;;17.62;66.42
65546;BME280;52177;55.968;37.498;2023-06-26T01:03:53;99589.78;;;17.64;66.56
65546;BME280;52177;55.968;37.498;2023-06-26T01:04:24;99594.97;;;17.65;66.57
65546;BME280;52177;55.968;37.498;2023-06-26T01:04:57;99595.78;;;17.66;66.82
65546;BME280;52177;55.968;37.498;2023-06-26T01:05:28;99597.66;;;17.65;66.66
65546;BME280;52177;55.968;37.498;2023-06-26T01:05:59;99596.81;;;17.65;66.60
65546;BME280;52177;55.968;37.498;2023-06-26T01:06:30;99590.81;;;17.63;66.84
65546;BME280;52177;55.968;37.498;2023-06-26T01:07:05;99593.75;;;17.61;66.84
65546;BME280;52177;55.968;37.498;2023-06-26T01:07:37;99596.66;;;17.60;67.20
65546;BME280;52177;55.968;37.498;2023-06-26T01:08:08;99601.03;;;17.61;67.10
65546;BME280;52177;55.968;37.498;2023-06-26T01:08:41;99595.84;;;17.59;67.11
65546;BME280;52177;55.968;37.498;2023-06-26T01:09:11;99597.72;;;17.59;67.03
65546;BME280;52177;55.968;37.498;2023-06-26T01:09:42;99592.56;;;17.57;67.14
65546;BME280;52177;55.968;37.498;2023-06-26T01:10:12;99590.91;;;17.56;67.18
65546;BME280;52177;55.968;37.498;2023-06-26T01:10:43;99607.31;;;17.55;67.28
65546;BME280;52177;55.968;37.498;2023-06-26T01:11:14;99602.13;;;17.53;67.13
65546;BME280;52177;55.968;37.498;2023-06-26T01:11:45;99601.53;;;17.51;67.12
65546;BME280;52177;55.968;37.498;2023-06-26T01:12:15;99592.03;;;17.48;67.08
65546;BME280;52177;55.968;37.498;2023-06-26T01:12:46;99598.69;;;17.46;67.08
65546;BME280;52177;55.968;37.498;2023-06-26T01:13:17;99598.94;;;17.44;67.46
65546;BME280;52177;55.968;37.498;2023-06-26T01:13:47;99594.34;;;17.45;67.52
65546;BME280;52177;55.968;37.498;2023-06-26T01:14:18;99597.25;;;17.43;67.69
65546;BME280;52177;55.968;37.498;2023-06-26T01:14:48;99602.66;;;17.43;67.61
65546;BME280;52177;55.968;37.498;2023-06-26T01:15:18;99591.88;;;17.43;67.72
65546;BME280;52177;55.968;37.498;2023-06-26T01:15:49;99597.25;;;17.43;67.55
65546;BME280;52177;55.968;37.498;2023-06-26T01:16:20;99597.25;;;17.43;67.52
65546;BME280;52177;55.968;37.498;2023-06-26T01:16:50;99600.78;;;17.44;67.38
65546;BME280;52177;55.968;37.498;2023-06-26T01:17:22;99600.78;;;17.44;67.47
65546;BME280;52177;55.968;37.498;2023-06-26T01:17:53;99598.09;;;17.44;67.28
65546;BME280;52177;55.968;37.498;2023-06-26T01:18:25;99595.19;;;17.45;67.19
65546;BME280;52177;55.968;37.498;2023-06-26T01:18:56;99593.53;;;17.44;67.12
65546;BME280;52177;55.968;37.498;2023-06-26T01:19:28;99599.28;;;17.48;66.97
65546;BME280;52177;55.968;37.498;2023-06-26T01:20:00;99596.59;;;17.48;66.99
65546;BME280;52177;55.968;37.498;2023-06-26T01:20:36;99596.59;;;17.48;67.17
65546;BME280;52177;55.968;37.498;2023-06-26T01:21:06;99595.56;;;17.49;67.49
65546;BME280;52177;55.968;37.498;2023-06-26T01:21:41;99595.56;;;17.49;67.39
65546;BME280;52177;55.968;37.498;2023-06-26T01:23:22;99589.56;;;17.47;67.50
65546;BME280;52177;55.968;37.498;2023-06-26T01:24:33;99591.81;;;17.50;67.58
65546;BME280;52177;55.968;37.498;2023-06-26T01:26:39;99597.19;;;17.50;67.76
65546;BME280;52177;55.968;37.498;2023-06-26T01:27:11;99599.06;;;17.49;67.53
65546;BME280;52177;55.968;37.498;2023-06-26T01:27:44;99591.81;;;17.50;67.69
65546;BME280;52177;55.968;37.498;2023-06-26T01:28:16;99590.19;;;17.49;67.53
65546;BME280;52177;55.968;37.498;2023-06-26T01:28:49;99599.06;;;17.49;67.26
65546;BME280;52177;55.968;37.498;2023-06-26T01:29:20;99598.25;;;17.49;67.62
65546;BME280;52177;55.968;37.498;2023-06-26T01:29:54;99599.88;;;17.50;67.72
65546;BME280;52177;55.968;37.498;2023-06-26T01:30:25;99599.88;;;17.50;67.69
65546;BME280;52177;55.968;37.498;2023-06-26T01:30:55;99598.25;;;17.49;67.70
65546;BME280;52177;55.968;37.498;2023-06-26T01:31:27;99592.63;;;17.50;67.75
65546;BME280;52177;55.968;37.498;2023-06-26T01:32:00;99601.31;;;17.52;67.57
65546;BME280;52177;55.968;37.498;2023-06-26T01:32:31;99594.28;;;17.51;67.42
65546;BME280;52177;55.968;37.498;2023-06-26T01:33:03;99596.75;;;17.53;67.51
65546;BME280;52177;55.968;37.498;2023-06-26T01:33:34;99597.59;;;17.54;67.67
65546;BME280;52177;55.968;37.498;2023-06-26T01:34:05;99600.84;;;17.56;67.81
65546;BME280;52177;55.968;37.498;2023-06-26T01:34:36;99594.44;;;17.57;67.53
65546;BME280;52177;55.968;37.498;2023-06-26T01:35:07;99600.63;;;17.57;67.41
65546;BME280;52177;55.968;37.498;2023-06-26T01:35:38;99600.63;;;17.57;66.90
65546;BME280;52177;55.968;37.498;2023-06-26T01:36:10;99599.81;;;17.57;67.19
65546;BME280;52177;55.968;37.498;2023-06-26T01:36:40;99597.94;;;17.57;67.33
65546;BME280;52177;55.968;37.498;2023-06-26T01:37:11;99602.06;;;17.60;67.21
65546;BME280;52177;55.968;37.498;2023-06-26T01:37:41;99589.41;;;17.60;67.28
65546;BME280;52177;55.968;37.498;2023-06-26T01:38:14;99597.28;;;17.62;66.85
65546;BME280;52177;55.968;37.498;2023-06-26T01:38:45;99600.78;;;17.62;66.81
65546;BME280;52177;55.968;37.498;2023-06-26T01:39:18;99600.78;;;17.62;66.77
65546;BME280;52177;55.968;37.498;2023-06-26T01:39:49;99602.44;;;17.63;67.05
65546;BME280;52177;55.968;37.498;2023-06-26T01:40:19;99603.06;;;17.65;67.08
65546;BME280;52177;55.968;37.498;2023-06-26T01:40:50;99600.34;;;17.65;66.92
65546;BME280;52177;55.968;37.498;2023-06-26T01:41:20;99603.06;;;17.65;67.09
65546;BME280;52177;55.968;37.498;2023-06-26T01:41:50;99598.69;;;17.64;67.21
65546;BME280;52177;55.968;37.498;2023-06-26T01:42:21;99601.38;;;17.64;67.24
65546;BME280;52177;55.968;37.498;2023-06-26T01:42:52;99604.28;;;17.63;67.39
65546;BME280;52177;55.968;37.498;2023-06-26T01:44:26;99602.97;;;17.54;67.38
65546;BME280;52177;55.968;37.498;2023-06-26T01:45:03;99601.31;;;17.52;67.32
65546;BME280;52177;55.968;37.498;2023-06-26T01:45:38;99595.91;;;17.52;67.46
65546;BME280;52177;55.968;37.498;2023-06-26T01:46:14;99600.50;;;17.52;67.17
65546;BME280;52177;55.968;37.498;2023-06-26T01:47:31;99605.66;;;17.54;67.22
65546;BME280;52177;55.968;37.498;2023-06-26T01:48:06;99598.16;;;17.56;67.46
65546;BME280;52177;55.968;37.498;2023-06-26T01:48:52;99598.75;;;17.58;67.51
65546;BME280;52177;55.968;37.498;2023-06-26T01:49:30;99602.53;;;17.57;67.53
65546;BME280;52177;55.968;37.498;2023-06-26T01:50:11;99597.13;;;17.57;67.67
65546;BME280;52177;55.968;37.498;2023-06-26T01:50:43;99600.63;;;17.57;67.57
65546;BME280;52177;55.968;37.498;2023-06-26T01:51:14;99602.28;;;17.58;67.69
65546;BME280;52177;55.968;37.498;2023-06-26T01:51:55;99601.47;;;17.58;68.08
65546;BME280;52177;55.968;37.498;2023-06-26T01:52:40;99599.22;;;17.55;68.46
65546;BME280;52177;55.968;37.498;2023-06-26T01:53:15;99604.81;;;17.53;68.09
65546;BME280;52177;55.968;37.498;2023-06-26T01:53:51;99596.97;;;17.51;68.17
65546;BME280;52177;55.968;37.498;2023-06-26T01:54:25;99602.38;;;17.51;68.20
65546;BME280;52177;55.968;37.498;2023-06-26T01:55:51;99606.91;;;17.51;68.40
65546;BME280;52177;55.968;37.498;2023-06-26T01:56:23;99605.06;;;17.51;68.38
65546;BME280;52177;55.968;37.498;2023-06-26T01:56:55;99597.81;;;17.52;68.13
65546;BME280;52177;55.968;37.498;2023-06-26T01:57:27;99602.97;;;17.54;68.04
65546;BME280;52177;55.968;37.498;2023-06-26T01:57:59;99602.13;;;17.53;68.34
65546;BME280;52177;55.968;37.498;2023-06-26T01:58:29;99608.13;;;17.55;68.22
65546;BME280;52177;55.968;37.498;2023-06-26T01:59:01;99602.72;;;17.55;67.95
65546;BME280;52177;55.968;37.498;2023-06-26T01:59:37;99602.53;;;17.57;68.15
65546;BME280;52177;55.968;37.498;2023-06-26T02:00:09;99603.13;;;17.59;68.26
65546;BME280;52177;55.968;37.498;2023-06-26T02:00:41;99603.13;;;17.59;67.94
65546;BME280;52177;55.968;37.498;2023-06-26T02:01:12;99609.13;;;17.61;67.90
65546;BME280;52177;55.968;37.498;2023-06-26T02:01:42;99609.13;;;17.61;68.04
65546;BME280;52177;55.968;37.498;2023-06-26T02:02:12;99607.44;;;17.60;68.17
65546;BME280;52177;55.968;37.498;2023-06-26T02:02:44;99610.97;;;17.60;68.10
65546;BME280;52177;55.968;37.498;2023-06-26T02:03:14;99606.84;;;17.58;68.13
65546;BME280;52177;55.968;37.498;2023-06-26T02:03:44;99609.53;;;17.58;68.32
65546;BME280;52177;55.968;37.498;2023-06-26T02:04:15;99609.53;;;17.58;68.39
65546;BME280;52177;55.968;37.498;2023-06-26T02:04:45;99604.41;;;17.56;68.59
65546;BME280;52177;55.968;37.498;2023-06-26T02:05:18;99603.34;;;17.57;68.67
65546;BME280;52177;55.968;37.498;2023-06-26T02:05:48;99604.97;;;17.58;68.48
65546;BME280;52177;55.968;37.498;2023-06-26T02:06:19;99602.28;;;17.58;68.43
65546;BME280;52177;55.968;37.498;2023-06-26T02:06:49;99606.63;;;17.59;68.56
65546;BME280;52177;55.968;37.498;2023-06-26T02:07:19;99603.94;;;17.59;68.50
65546;BME280;52177;55.968;37.498;2023-06-26T02:07:50;99602.06;;;17.60;68.30
65546;BME280;52177;55.968;37.498;2023-06-26T02:08:21;99600.44;;;17.59;68.60
65546;BME280;52177;55.968;37.498;2023-06-26T02:08:52;99603.13;;;17.59;68.81
65546;BME280;52177;55.968;37.498;2023-06-26T02:09:26;99597.72;;;17.59;68.76
65546;BME280;52177;55.968;37.498;2023-06-26T02:09:56;99598.34;;;17.61;68.75
65546;BME280;52177;55.968;37.498;2023-06-26T02:10:27;99603.47;;;17.62;68.62
65546;BME280;52177;55.968;37.498;2023-06-26T02:10:57;99602.44;;;17.63;68.50
65546;BME280;52177;55.968;37.498;2023-06-26T02:11:27;99606.78;;;17.64;68.51
65546;BME280;52177;55.968;37.498;2023-06-26T02:11:58;99604.09;;;17.64;68.50
65546;BME280;52177;55.968;37.498;2023-06-26T02:12:28;99596.59;;;17.66;68.58
65546;BME280;52177;55.968;37.498;2023-06-26T02:13:00;99607.38;;;17.66;68.46
65546;BME280;52177;55.968;37.498;2023-06-26T02:13:30;99607.16;;;17.68;68.45
65546;BME280;52177;55.968;37.498;2023-06-26T02:14:00;99602.59;;;17.68;68.29
65546;BME280;52177;55.968;37.498;2023-06-26T02:14:31;99604.22;;;17.69;68.45
65546;BME280;52177;55.968;37.498;2023-06-26T02:15:02;99603.19;;;17.70;68.26
65546;BME280;52177;55.968;37.498;2023-06-26T02:15:32;99603.41;;;17.69;68.28
65546;BME280;52177;55.968;37.498;2023-06-26T02:16:03;99600.50;;;17.70;68.17
65546;BME280;52177;55.968;37.498;2023-06-26T02:16:33;99599.44;;;17.71;68.10
65546;BME280;52177;55.968;37.498;2023-06-26T02:17:04;99604.81;;;17.71;68.17
65546;BME280;52177;55.968;37.498;2023-06-26T02:17:34;99601.31;;;17.71;68.10
65546;BME280;52177;55.968;37.498;2023-06-26T02:18:05;99598.63;;;17.71;68.34
65546;BME280;52177;55.968;37.498;2023-06-26T02:18:35;99600.25;;;17.72;68.09
65546;BME280;52177;55.968;37.498;2023-06-26T02:19:05;99604.81;;;17.71;68.21
65546;BME280;52177;55.968;37.498;2023-06-26T02:19:36;99595.72;;;17.72;68.35
65546;BME280;52177;55.968;37.498;2023-06-26T02:20:06;99597.34;;;17.73;68.22
65546;BME280;52177;55.968;37.498;2023-06-26T02:20:39;99597.13;;;17.75;68.13
65546;BME280;52177;55.968;37.498;2023-06-26T02:21:10;99606.03;;;17.76;67.88
65546;BME280;52177;55.968;37.498;2023-06-26T02:21:40;99599.56;;;17.77;68.13
65546;BME280;52177;55.968;37.498;2023-06-26T02:22:11;99599.34;;;17.78;68.08
65546;BME280;52177;55.968;37.498;2023-06-26T02:22:41;99599.16;;;17.80;68.21
65546;BME280;52177;55.968;37.498;2023-06-26T02:23:12;99600.81;;;17.81;68.36
65546;BME280;52177;55.968;37.498;2023-06-26T02:23:43;99608.69;;;17.82;68.36
65546;BME280;52177;55.968;37.498;2023-06-26T02:24:13;99610.56;;;17.82;68.66
65546;BME280;52177;55.968;37.498;2023-06-26T02:24:43;99597.91;;;17.82;68.58
65546;BME280;52177;55.968;37.498;2023-06-26T02:25:14;99600.59;;;17.82;68.64
65546;BME280;52177;55.968;37.498;2023-06-26T02:25:44;99594.94;;;17.84;68.43
65546;BME280;52177;55.968;37.498;2023-06-26T02:26:15;99601.19;;;17.84;68.60
65546;BME280;52177;55.968;37.498;2023-06-26T02:26:45;99597.44;;;17.85;68.45
65546;BME280;52177;55.968;37.498;2023-06-26T02:27:16;99596.41;;;17.86;68.63
65546;BME280;52177;55.968;37.498;2023-06-26T02:27:46;99599.91;;;17.87;68.60
65546;BME280;52177;55.968;37.498;2023-06-26T02:28:16;99599.09;;;17.86;68.43
65546;BME280;52177;55.968;37.498;2023-06-26T02:28:46;99597.44;;;17.85;68.59
65546;BME280;52177;55.968;37.498;2023-06-26T02:29:17;99592.25;;;17.84;68.49
65546;BME280;52177;55.968;37.498;2023-06-26T02:29:47;99597.66;;;17.84;68.43
65546;BME280;52177;55.968;37.498;2023-06-26T02:30:17;99586.88;;;17.84;68.28
65546;BME280;52177;55.968;37.498;2023-06-26T02:30:48;99593.09;;;17.84;68.04
65546;BME280;52177;55.968;37.498;2023-06-26T02:31:18;99589.56;;;17.84;68.03
65546;BME280;52177;55.968;37.498;2023-06-26T02:31:49;99592.66;;;17.87;67.93
65546;BME280;52177;55.968;37.498;2023-06-26T02:32:19;99588.06;;;17.88;68.02
65546;BME280;52177;55.968;37.498;2023-06-26T02:32:49;99598.63;;;17.89;67.82
65546;BME280;52177;55.968;37.498;2023-06-26T02:33:19;99594.66;;;17.92;67.63
65546;BME280;52177;55.968;37.498;2023-06-26T02:33:50;99597.97;;;17.94;67.41
65546;BME280;52177;55.968;37.498;2023-06-26T02:34:20;99596.69;;;17.97;67.69
65546;BME280;52177;55.968;37.498;2023-06-26T02:34:51;99592.91;;;17.98;67.32
65546;BME280;52177;55.968;37.498;2023-06-26T02:35:24;99596.00;;;18.01;67.46
65546;BME280;52177;55.968;37.498;2023-06-26T02:35:54;99591.19;;;18.03;67.38
65546;BME280;52177;55.968;37.498;2023-06-26T02:36:24;99599.03;;;18.05;67.22
65546;BME280;52177;55.968;37.498;2023-06-26T02:36:54;99592.63;;;18.06;67.46
65546;BME280;52177;55.968;37.498;2023-06-26T02:37:25;99595.06;;;18.07;67.03
65546;BME280;52177;55.968;37.498;2023-06-26T02:37:55;99604.81;;;18.08;66.89
65546;BME280;52177;55.968;37.498;2023-06-26T02:38:26;99596.50;;;18.10;66.79
65546;BME280;52177;55.968;37.498;2023-06-26T02:38:56;99600.63;;;18.12;66.66
65546;BME280;52177;55.968;37.498;2023-06-26T02:39:27;99597.69;;;18.14;66.75
65546;BME280;52177;55.968;37.498;2023-06-26T02:39:57;99603.91;;;18.14;66.84
65546;BME280;52177;55.968;37.498;2023-06-26T02:40:27;99600.16;;;18.16;66.69
65546;BME280;52177;55.968;37.498;2023-06-26T02:40:58;99601.56;;;18.18;66.60
65546;BME280;52177;55.968;37.498;2023-06-26T02:41:28;99592.44;;;18.19;66.54
65546;BME280;52177;55.968;37.498;2023-06-26T02:41:58;99593.25;;;18.20;66.26
65546;BME280;52177;55.968;37.498;2023-06-26T02:42:30;99600.06;;;18.22;66.38
65546;BME280;52177;55.968;37.498;2023-06-26T02:43:01;99595.50;;;18.23;66.50
65546;BME280;52177;55.968;37.498;2023-06-26T02:43:31;99598.19;;;18.23;66.47
65546;BME280;52177;55.968;37.498;2023-06-26T02:44:01;99591.72;;;18.24;66.41
65546;BME280;52177;55.968;37.498;2023-06-26T02:44:32;99596.09;;;18.25;66.17
65546;BME280;52177;55.968;37.498;2023-06-26T02:45:03;99598.78;;;18.25;66.19
65546;BME280;52177;55.968;37.498;2023-06-26T02:45:33;99598.56;;;18.26;66.24
65546;BME280;52177;55.968;37.498;2023-06-26T02:46:04;99599.38;;;18.27;66.04
65546;BME280;52177;55.968;37.498;2023-06-26T02:46:34;99606.41;;;18.28;66.12
65546;BME280;52177;55.968;37.498;2023-06-26T02:47:04;99596.22;;;18.30;66.01
65546;BME280;52177;55.968;37.498;2023-06-26T02:47:35;99597.88;;;18.31;65.92
65546;BME280;52177;55.968;37.498;2023-06-26T02:48:07;99601.16;;;18.33;65.72
65546;BME280;52177;55.968;37.498;2023-06-26T02:48:37;99603.84;;;18.33;65.78
65546;BME280;52177;55.968;37.498;2023-06-26T02:49:07;99601.75;;;18.35;65.79